createdAt,value
2023-04-28T00:02:39.921Z,80.40
2023-04-28T00:05:28.468Z,84.60
2023-04-28T00:08:16.150Z,83.70
2023-04-28T00:11:12.350Z,85.50
2023-04-28T00:13:59.862Z,86.70
2023-04-28T00:16:47.901Z,86.90
2023-04-28T00:19:36.193Z,88.60
2023-04-28T00:22:23.749Z,89.50
2023-04-28T00:25:11.524Z,89.70
2023-04-28T00:27:59.172Z,89.80
2023-04-28T00:30:47.200Z,89.60
2023-04-28T00:33:34.757Z,90.60
2023-04-28T00:36:22.330Z,90.40
2023-04-28T00:39:10.215Z,90.20
2023-04-28T00:41:58.142Z,90.80
2023-04-28T00:44:45.645Z,90.60
2023-04-28T00:47:34.566Z,90.20
2023-04-28T00:50:24.541Z,89.00
2023-04-28T00:53:12.833Z,90.00
2023-04-28T00:56:01.230Z,91.20
2023-04-28T00:58:48.780Z,91.30
2023-04-28T01:01:36.951Z,92.00
2023-04-28T01:04:24.936Z,92.30
2023-04-28T01:07:12.631Z,91.70
2023-04-28T01:10:00.187Z,91.90
2023-04-28T01:12:47.697Z,91.50
2023-04-28T01:15:35.875Z,91.00
2023-04-28T01:18:24.056Z,90.60
2023-04-28T01:21:11.496Z,90.30
2023-04-28T01:23:59.916Z,90.30
2023-04-28T01:26:47.450Z,91.00
2023-04-28T01:29:35.158Z,91.80
2023-04-28T01:32:22.756Z,91.20
2023-04-28T01:35:13.093Z,91.50
2023-04-28T01:38:01.016Z,91.70
2023-04-28T01:40:48.523Z,90.90
2023-04-28T01:43:36.332Z,92.30
2023-04-28T01:46:24.260Z,92.60
2023-04-28T01:49:11.988Z,92.50
2023-04-28T01:51:59.597Z,92.20
2023-04-28T01:54:47.226Z,92.70
2023-04-28T01:57:36.149Z,93.30
2023-04-28T02:00:23.693Z,94.90
2023-04-28T02:03:11.609Z,96.20
2023-04-28T02:05:59.166Z,98.30
2023-04-28T02:08:46.730Z,98.30
2023-04-28T02:11:34.310Z,99.90
2023-04-28T02:14:21.926Z,99.90
2023-04-28T02:17:09.418Z,99.90
2023-04-28T02:19:57.563Z,99.90
2023-04-28T02:22:45.014Z,99.90
2023-04-28T02:25:32.436Z,99.90
2023-04-28T02:28:19.959Z,99.90
2023-04-28T02:31:08.904Z,99.90
2023-04-28T02:33:56.445Z,99.90
2023-04-28T02:36:43.989Z,99.90
2023-04-28T02:39:33.132Z,99.90
2023-04-28T02:42:21.075Z,99.90
2023-04-28T02:45:08.763Z,99.90
2023-04-28T02:47:56.237Z,99.90
2023-04-28T02:50:43.790Z,99.90
2023-04-28T02:53:31.357Z,99.90
2023-04-28T02:56:18.808Z,99.90
2023-04-28T02:59:06.486Z,99.90
2023-04-28T03:01:53.926Z,99.90
2023-04-28T03:04:41.661Z,99.90
2023-04-28T03:07:29.266Z,99.90
2023-04-28T03:10:16.857Z,99.90
2023-04-28T03:13:04.422Z,99.90
2023-04-28T03:15:52.588Z,99.90
2023-04-28T03:18:40.423Z,99.90
2023-04-28T03:21:27.859Z,99.90
2023-04-28T03:24:18.279Z,99.90
2023-04-28T03:27:05.945Z,99.90
2023-04-28T03:29:54.066Z,99.90
2023-04-28T03:32:41.729Z,99.90
2023-04-28T03:35:29.301Z,99.90
2023-04-28T03:38:17.092Z,99.90
2023-04-28T03:41:04.675Z,99.90
2023-04-28T03:43:53.372Z,99.90
2023-04-28T03:46:40.977Z,99.90
2023-04-28T03:49:28.496Z,99.90
2023-04-28T03:52:16.345Z,99.90
2023-04-28T03:55:04.313Z,99.90
2023-04-28T03:57:52.352Z,99.90
2023-04-28T04:00:39.892Z,99.90
2023-04-28T04:03:27.729Z,99.90
2023-04-28T04:06:15.763Z,99.90
2023-04-28T04:09:04.054Z,99.90
2023-04-28T04:11:51.708Z,99.90
2023-04-28T04:14:39.542Z,99.90
2023-04-28T04:17:27.276Z,99.90
2023-04-28T04:20:14.821Z,99.90
2023-04-28T04:23:03.666Z,99.90
2023-04-28T04:25:51.415Z,99.90
2023-04-28T04:28:39.040Z,99.90
2023-04-28T04:31:34.356Z,99.90
2023-04-28T04:34:21.935Z,99.90
2023-04-28T04:37:12.709Z,99.90
2023-04-28T04:40:00.308Z,99.90
2023-04-28T04:42:47.980Z,99.90
2023-04-28T04:45:35.640Z,99.90
2023-04-28T04:48:23.313Z,99.90
2023-04-28T04:51:11.457Z,99.90
2023-04-28T04:53:58.948Z,99.90
2023-04-28T04:56:46.587Z,99.90
2023-04-28T04:59:34.284Z,99.90
2023-04-28T05:02:21.961Z,99.90
2023-04-28T05:05:21.281Z,99.90
2023-04-28T05:08:10.718Z,99.90
2023-04-28T05:10:58.262Z,99.90
2023-04-28T05:13:45.877Z,99.90
2023-04-28T05:16:33.462Z,99.90
2023-04-28T05:19:24.036Z,99.90
2023-04-28T05:22:12.707Z,99.90
2023-04-28T05:25:00.617Z,99.90
2023-04-28T05:27:49.046Z,99.90
2023-04-28T05:30:36.880Z,99.90
2023-04-28T05:33:27.893Z,99.90
2023-04-28T05:36:17.485Z,99.90
2023-04-28T05:39:05.928Z,99.90
2023-04-28T05:41:53.952Z,99.90
2023-04-28T05:44:43.085Z,99.90
2023-04-28T05:47:31.528Z,99.90
2023-04-28T05:50:24.533Z,99.90
2023-04-28T05:53:12.628Z,99.90
2023-04-28T05:56:00.430Z,99.90
2023-04-28T05:58:51.068Z,99.90
2023-04-28T06:01:58.229Z,99.90
2023-04-28T06:04:49.184Z,99.90
2023-04-28T06:07:37.480Z,99.90
2023-04-28T06:10:34.070Z,99.90
2023-04-28T06:13:21.915Z,99.90
2023-04-28T06:16:09.706Z,99.90
2023-04-28T06:18:58.794Z,99.90
2023-04-28T06:21:48.444Z,99.90
2023-04-28T06:24:36.654Z,99.90
2023-04-28T06:27:29.613Z,99.90
2023-04-28T06:30:25.352Z,99.90
2023-04-28T06:33:17.347Z,99.90
2023-04-28T06:36:07.662Z,99.90
2023-04-28T06:38:57.611Z,99.90
2023-04-28T06:41:51.058Z,99.90
2023-04-28T06:44:39.033Z,99.90
2023-04-28T06:47:31.263Z,99.90
2023-04-28T06:50:41.810Z,99.90
2023-04-28T06:53:31.534Z,99.90
2023-04-28T06:56:19.967Z,99.90
2023-04-28T06:59:08.364Z,99.90
2023-04-28T07:01:57.381Z,99.90
2023-04-28T07:04:48.627Z,99.90
2023-04-28T07:07:39.095Z,99.90
2023-04-28T07:10:33.657Z,99.90
2023-04-28T07:13:28.938Z,99.90
2023-04-28T07:16:19.747Z,99.90
2023-04-28T07:19:08.050Z,99.90
2023-04-28T07:21:55.895Z,99.90
2023-04-28T07:24:44.646Z,99.90
2023-04-28T07:27:32.553Z,99.90
2023-04-28T07:30:27.793Z,99.90
2023-04-28T07:33:16.401Z,99.90
2023-04-28T07:36:04.668Z,99.90
2023-04-28T07:38:55.433Z,99.90
2023-04-28T07:41:43.896Z,99.90
2023-04-28T07:44:34.926Z,99.90
2023-04-28T07:47:22.551Z,99.90
2023-04-28T07:50:13.142Z,99.90
2023-04-28T07:53:00.865Z,99.90
2023-04-28T07:55:48.756Z,99.90
2023-04-28T07:58:39.085Z,99.90
2023-04-28T08:01:32.742Z,99.90
2023-04-28T08:07:09.600Z,99.90
2023-04-28T08:09:57.745Z,99.90
2023-04-28T08:12:45.574Z,99.90
2023-04-28T08:15:33.509Z,99.90
2023-04-28T08:18:21.184Z,99.90
2023-04-28T08:21:09.100Z,99.90
2023-04-28T08:23:56.711Z,99.90
2023-04-28T08:26:44.498Z,99.90
2023-04-28T08:29:33.386Z,99.90
2023-04-28T08:32:24.038Z,99.90
2023-04-28T08:35:12.059Z,99.90
2023-04-28T08:37:59.885Z,99.90
2023-04-28T08:40:47.615Z,99.90
2023-04-28T08:43:45.721Z,99.90
2023-04-28T08:46:40.666Z,99.90
2023-04-28T08:49:35.250Z,99.90
2023-04-28T08:52:25.105Z,99.90
2023-04-28T08:55:13.604Z,99.90
2023-04-28T08:58:02.885Z,99.90
2023-04-28T09:00:54.499Z,99.90
2023-04-28T09:03:45.466Z,99.90
2023-04-28T09:06:39.241Z,99.90
2023-04-28T09:09:34.972Z,99.90
2023-04-28T09:12:40.070Z,99.90
2023-04-28T09:15:39.354Z,99.90
2023-04-28T09:18:35.802Z,99.90
2023-04-28T09:24:43.751Z,99.90
2023-04-28T09:27:37.627Z,99.90
2023-04-28T09:30:48.065Z,99.90
2023-04-28T09:37:36.806Z,99.90
2023-04-28T09:40:39.203Z,99.90
2023-04-28T09:43:32.128Z,99.90
2023-04-28T09:46:42.000Z,99.90
2023-04-28T09:49:36.207Z,99.90
2023-04-28T09:52:27.564Z,99.90
2023-04-28T09:55:29.716Z,99.90
2023-04-28T09:58:21.654Z,99.90
2023-04-28T10:01:15.147Z,99.90
2023-04-28T10:04:12.632Z,99.90
2023-04-28T10:07:02.796Z,99.90
2023-04-28T10:09:53.556Z,99.90
2023-04-28T10:12:47.519Z,99.90
2023-04-28T10:15:37.879Z,99.90
2023-04-28T10:19:06.262Z,99.90
2023-04-28T10:22:09.943Z,99.90
2023-04-28T10:25:09.101Z,99.90
2023-04-28T10:27:59.620Z,99.90
2023-04-28T10:31:17.839Z,99.90
2023-04-28T10:34:25.553Z,99.90
2023-04-28T10:38:01.100Z,99.90
2023-04-28T10:40:50.845Z,99.90
2023-04-28T10:43:42.450Z,99.90
2023-04-28T10:47:04.892Z,99.90
2023-04-28T10:49:56.117Z,99.90
2023-04-28T10:52:46.503Z,99.90
2023-04-28T10:55:40.330Z,99.90
2023-04-28T10:58:29.881Z,99.90
2023-04-28T11:01:26.594Z,99.90
2023-04-28T11:04:15.807Z,99.90
2023-04-28T11:07:17.068Z,99.90
2023-04-28T11:10:07.908Z,99.90
2023-04-28T11:13:36.429Z,99.90
2023-04-28T11:16:25.731Z,99.90
2023-04-28T11:19:14.772Z,99.90
2023-04-28T11:22:12.975Z,99.90
2023-04-28T11:25:02.726Z,99.90
2023-04-28T11:27:50.862Z,99.90
2023-04-28T11:30:38.407Z,99.90
2023-04-28T11:33:26.414Z,99.90
2023-04-28T11:36:24.705Z,99.90
2023-04-28T11:39:13.923Z,99.90
2023-04-28T11:42:08.982Z,99.90
2023-04-28T11:44:56.528Z,99.90
2023-04-28T11:47:44.078Z,99.90
2023-04-28T11:50:38.408Z,99.90
2023-04-28T11:53:45.064Z,99.90
2023-04-28T11:56:37.898Z,99.90
2023-04-28T11:59:27.460Z,99.90
2023-04-28T12:02:17.018Z,99.90
2023-04-28T12:05:09.017Z,99.90
2023-04-28T12:07:56.721Z,99.90
2023-04-28T12:10:44.283Z,99.90
2023-04-28T12:13:36.367Z,99.90
2023-04-28T12:16:39.164Z,99.90
2023-04-28T12:19:26.953Z,99.90
2023-04-28T12:22:17.513Z,99.90
2023-04-28T12:25:12.470Z,99.90
2023-04-28T12:28:04.423Z,99.90
2023-04-28T12:31:07.289Z,99.90
2023-04-28T12:33:55.342Z,99.90
2023-04-28T12:36:46.487Z,99.90
2023-04-28T12:39:39.672Z,99.90
2023-04-28T12:42:27.708Z,99.90
2023-04-28T12:45:16.301Z,99.90
2023-04-28T12:48:04.049Z,99.90
2023-04-28T12:50:52.525Z,99.90
2023-04-28T12:53:40.282Z,99.90
2023-04-28T12:56:28.776Z,99.90
2023-04-28T12:59:16.488Z,99.90
2023-04-28T13:02:04.260Z,99.90
2023-04-28T13:04:53.367Z,99.90
2023-04-28T13:07:41.352Z,99.90
2023-04-28T13:10:29.869Z,99.90
2023-04-28T13:13:17.413Z,99.90
2023-04-28T13:16:08.877Z,99.90
2023-04-28T13:19:01.239Z,99.90
2023-04-28T13:21:49.309Z,99.90
2023-04-28T13:24:39.556Z,99.90
2023-04-28T13:27:28.525Z,99.90
2023-04-28T13:30:16.237Z,99.90
2023-04-28T13:33:04.060Z,99.90
2023-04-28T13:35:54.012Z,99.90
2023-04-28T13:38:49.089Z,99.90
2023-04-28T13:41:49.243Z,99.90
2023-04-28T13:44:39.074Z,99.90
2023-04-28T13:47:29.498Z,99.90
2023-04-28T13:50:20.706Z,99.90
2023-04-28T13:53:08.632Z,99.90
2023-04-28T13:56:03.035Z,99.90
2023-04-28T13:58:50.545Z,99.90
2023-04-28T14:01:38.336Z,99.90
2023-04-28T14:04:26.261Z,99.90
2023-04-28T14:07:19.782Z,99.90
2023-04-28T14:10:07.738Z,99.90
2023-04-28T14:12:55.466Z,99.90
2023-04-28T14:15:57.910Z,99.90
2023-04-28T14:18:46.574Z,99.90
2023-04-28T14:21:35.019Z,99.90
2023-04-28T14:24:23.552Z,99.90
2023-04-28T14:27:11.680Z,99.90
2023-04-28T14:30:00.981Z,99.90
2023-04-28T14:32:52.237Z,99.90
2023-04-28T14:35:40.846Z,99.90
2023-04-28T14:38:30.799Z,99.90
2023-04-28T14:41:18.386Z,99.90
2023-04-28T14:44:06.209Z,99.90
2023-04-28T14:46:53.889Z,99.90
2023-04-28T14:49:41.586Z,99.90
2023-04-28T14:52:30.548Z,99.90
2023-04-28T14:55:20.714Z,99.90
2023-04-28T14:58:10.762Z,99.90
2023-04-28T15:00:58.264Z,99.90
2023-04-28T15:03:46.079Z,99.90
2023-04-28T15:06:40.335Z,99.90
2023-04-28T15:09:28.046Z,99.90
2023-04-28T15:12:16.103Z,99.90
2023-04-28T15:15:03.748Z,99.90
2023-04-28T15:17:51.290Z,99.90
2023-04-28T15:20:39.396Z,99.90
2023-04-28T15:23:27.240Z,99.90
2023-04-28T15:26:14.933Z,99.90
2023-04-28T15:29:04.964Z,99.90
2023-04-28T15:31:55.340Z,99.90
2023-04-28T15:34:44.319Z,99.90
2023-04-28T15:37:37.857Z,99.90
2023-04-28T15:40:25.406Z,99.90
2023-04-28T15:43:13.384Z,99.90
2023-04-28T15:46:02.766Z,99.90
2023-04-28T15:48:50.439Z,99.90
2023-04-28T15:51:38.384Z,99.90
2023-04-28T15:54:38.425Z,99.90
2023-04-28T15:57:26.095Z,99.90
2023-04-28T16:00:17.070Z,99.90
2023-04-28T16:03:04.857Z,99.90
2023-04-28T16:05:55.901Z,99.90
2023-04-28T16:08:43.380Z,99.90
2023-04-28T16:11:31.179Z,99.90
2023-04-28T16:14:18.805Z,99.90
2023-04-28T16:17:06.401Z,99.90
2023-04-28T16:19:53.941Z,99.90
2023-04-28T16:22:41.908Z,99.90
2023-04-28T16:25:32.685Z,99.90
2023-04-28T16:28:20.781Z,99.90
2023-04-28T16:31:13.298Z,99.90
2023-04-28T16:34:00.904Z,99.90
2023-04-28T16:37:03.144Z,99.90
2023-04-28T16:39:51.943Z,99.90
2023-04-28T16:42:39.928Z,99.90
2023-04-28T16:45:27.718Z,99.90
2023-04-28T16:48:29.990Z,99.90
2023-04-28T16:51:17.829Z,99.90
2023-04-28T16:54:05.779Z,99.90
2023-04-28T16:56:54.944Z,99.90
2023-04-28T16:59:42.997Z,99.90
2023-04-28T17:02:30.905Z,99.90
2023-04-28T17:05:18.612Z,99.90
2023-04-28T17:08:06.405Z,99.90
2023-04-28T17:10:53.992Z,99.90
2023-04-28T17:13:42.175Z,99.90
2023-04-28T17:16:36.086Z,99.90
2023-04-28T17:19:24.249Z,99.90
2023-04-28T17:22:12.507Z,99.90
2023-04-28T17:25:03.541Z,99.90
2023-04-28T17:27:57.314Z,99.90
2023-04-28T17:30:47.462Z,99.90
2023-04-28T17:33:35.630Z,99.90
2023-04-28T17:36:23.517Z,99.90
2023-04-28T17:39:11.055Z,99.90
2023-04-28T17:41:58.805Z,99.90
2023-04-28T17:44:46.331Z,99.90
2023-04-28T17:47:34.249Z,99.90
2023-04-28T17:50:22.150Z,99.90
2023-04-28T17:53:10.108Z,99.90
2023-04-28T17:55:57.669Z,99.90
2023-04-28T17:58:45.174Z,99.90
2023-04-28T18:01:34.979Z,99.90
2023-04-28T18:04:25.425Z,99.90
2023-04-28T18:07:22.122Z,99.90
2023-04-28T18:10:09.991Z,99.90
2023-04-28T18:12:59.206Z,99.90
2023-04-28T18:15:47.151Z,99.90
2023-04-28T18:18:42.238Z,99.90
2023-04-28T18:21:34.270Z,99.90
2023-04-28T18:24:22.196Z,99.90
2023-04-28T18:27:15.346Z,99.90
2023-04-28T18:30:04.042Z,99.90
2023-04-28T18:32:52.286Z,99.90
2023-04-28T18:35:40.100Z,99.90
2023-04-28T18:38:28.148Z,99.90
2023-04-28T18:41:18.174Z,99.90
2023-04-28T18:44:06.161Z,99.90
2023-04-28T18:46:57.043Z,99.90
2023-04-28T18:49:45.053Z,99.90
2023-04-28T18:52:32.546Z,99.90
2023-04-28T18:55:20.881Z,99.90
2023-04-28T18:58:08.615Z,99.90
2023-04-28T19:00:56.751Z,99.90
2023-04-28T19:03:45.083Z,99.90
2023-04-28T19:06:33.018Z,99.90
2023-04-28T19:09:21.175Z,99.90
2023-04-28T19:12:08.964Z,99.90
2023-04-28T19:14:56.658Z,99.90
2023-04-28T19:17:44.697Z,99.90
2023-04-28T19:20:32.662Z,99.90
2023-04-28T19:23:20.260Z,99.90
2023-04-28T19:26:09.266Z,99.90
2023-04-28T19:28:56.906Z,99.90
2023-04-28T19:31:44.754Z,99.90
2023-04-28T19:34:32.421Z,99.90
2023-04-28T19:37:20.160Z,99.90
2023-04-28T19:40:08.733Z,99.90
2023-04-28T19:42:56.530Z,99.90
2023-04-28T19:45:44.786Z,99.90
2023-04-28T19:48:32.394Z,99.90
2023-04-28T19:51:20.687Z,99.90
2023-04-28T19:54:08.257Z,99.90
2023-04-28T19:56:55.798Z,99.90
2023-04-28T19:59:43.522Z,99.90
2023-04-28T20:02:31.420Z,99.90
2023-04-28T20:05:20.858Z,99.90
2023-04-28T20:08:10.968Z,99.90
2023-04-28T20:10:58.546Z,99.90
2023-04-28T20:13:48.892Z,99.90
2023-04-28T20:16:36.860Z,99.90
2023-04-28T20:19:24.941Z,99.90
2023-04-28T20:22:12.839Z,99.90
2023-04-28T20:25:01.718Z,99.90
2023-04-28T20:27:49.696Z,99.90
2023-04-28T20:30:38.165Z,99.90
2023-04-28T20:33:33.741Z,99.90
2023-04-28T20:36:24.244Z,99.90
2023-04-28T20:39:19.891Z,99.90
2023-04-28T20:42:14.143Z,99.90
2023-04-28T20:45:02.389Z,99.90
2023-04-28T20:48:02.070Z,99.90
2023-04-28T20:50:55.544Z,99.90
2023-04-28T20:53:43.406Z,99.90
2023-04-28T20:56:34.323Z,99.90
2023-04-28T20:59:22.183Z,99.90
2023-04-28T21:02:10.081Z,99.90
2023-04-28T21:04:58.096Z,99.90
2023-04-28T21:07:46.376Z,99.90
2023-04-28T21:10:33.952Z,99.90
2023-04-28T21:13:21.792Z,99.90
2023-04-28T21:16:20.532Z,99.90
2023-04-28T21:19:08.955Z,99.90
2023-04-28T21:22:00.268Z,99.90
2023-04-28T21:24:47.997Z,99.90
2023-04-28T21:27:47.851Z,99.90
2023-04-28T21:30:43.420Z,99.90
2023-04-28T21:33:47.373Z,99.90
2023-04-28T21:37:07.168Z,99.90
2023-04-28T21:40:12.002Z,99.90
2023-04-28T21:43:05.650Z,99.90
2023-04-28T21:49:01.548Z,99.90
2023-04-28T21:51:49.648Z,99.90
2023-04-28T21:54:37.154Z,99.90
2023-04-28T21:57:24.950Z,99.90
2023-04-28T22:00:17.073Z,99.90
2023-04-28T22:03:26.007Z,99.90
2023-04-28T22:06:40.430Z,99.90
2023-04-28T22:09:34.665Z,99.90
2023-04-28T22:13:22.234Z,99.90
2023-04-28T22:16:20.461Z,99.90
2023-04-28T22:22:13.833Z,99.90
2023-04-28T22:25:01.706Z,99.90
2023-04-28T22:32:03.103Z,99.90
2023-04-28T22:35:26.228Z,99.90
2023-04-28T22:38:13.985Z,99.90
2023-04-28T22:41:49.757Z,99.90
2023-04-28T22:44:37.846Z,99.90
2023-04-28T22:47:45.594Z,99.90
2023-04-28T22:50:36.034Z,99.90
2023-04-28T22:53:30.916Z,99.90
2023-04-28T22:56:21.147Z,99.90
2023-04-28T23:02:38.391Z,99.90
2023-04-28T23:05:26.199Z,99.90
2023-04-28T23:08:14.617Z,99.90
2023-04-28T23:11:12.263Z,99.90
2023-04-28T23:14:59.313Z,99.90
2023-04-28T23:21:22.424Z,99.90
2023-04-28T23:27:49.537Z,99.90
2023-04-28T23:30:38.444Z,99.90
2023-04-28T23:33:26.325Z,99.90
2023-04-28T23:36:13.911Z,99.90
2023-04-28T23:39:02.460Z,99.90
2023-04-28T23:41:50.377Z,99.90
2023-04-28T23:44:38.212Z,99.90
2023-04-28T23:47:25.913Z,99.90
2023-04-28T23:50:13.496Z,99.90
2023-04-28T23:53:01.185Z,99.90
2023-04-28T23:55:49.053Z,99.90
2023-04-28T23:58:37.380Z,99.90
